createdAt,value
2023-04-19T00:00:12.367Z,10.52
2023-04-19T00:03:16.022Z,10.57
2023-04-19T00:06:21.176Z,10.46
2023-04-19T00:09:24.151Z,10.34
2023-04-19T00:12:27.193Z,10.36
2023-04-19T00:15:30.251Z,10.40
2023-04-19T00:18:33.808Z,10.42
2023-04-19T00:21:37.225Z,10.45
2023-04-19T00:24:40.405Z,10.44
2023-04-19T00:27:43.392Z,10.42
2023-04-19T00:30:46.661Z,10.43
2023-04-19T00:33:49.895Z,10.40
2023-04-19T00:36:53.132Z,10.42
2023-04-19T00:39:56.548Z,10.45
2023-04-19T00:42:59.919Z,10.43
2023-04-19T00:46:03.473Z,10.51
2023-04-19T00:49:07.047Z,10.49
2023-04-19T00:52:10.825Z,10.58
2023-04-19T00:55:14.823Z,10.49
2023-04-19T00:58:19.071Z,10.46
2023-04-19T01:01:22.725Z,10.48
2023-04-19T01:04:26.655Z,10.45
2023-04-19T01:07:29.923Z,10.51
2023-04-19T01:10:32.971Z,10.51
2023-04-19T01:13:36.135Z,10.49
2023-04-19T01:16:39.423Z,10.44
2023-04-19T01:19:42.876Z,10.38
2023-04-19T01:22:46.397Z,10.39
2023-04-19T01:25:50.395Z,10.36
2023-04-19T01:28:53.555Z,10.31
2023-04-19T01:31:56.941Z,10.40
2023-04-19T01:35:02.871Z,10.37
2023-04-19T01:38:06.668Z,10.21
2023-04-19T01:41:10.216Z,10.39
2023-04-19T01:44:13.728Z,10.33
2023-04-19T01:47:17.026Z,10.24
2023-04-19T01:50:20.351Z,10.21
2023-04-19T01:53:23.757Z,10.19
2023-04-19T01:56:26.765Z,10.12
2023-04-19T01:59:30.138Z,10.23
2023-04-19T02:02:33.220Z,10.24
2023-04-19T02:05:39.712Z,10.24
2023-04-19T02:08:43.430Z,10.17
2023-04-19T02:11:46.781Z,10.23
2023-04-19T02:14:50.043Z,10.27
2023-04-19T02:17:53.145Z,10.19
2023-04-19T02:20:56.861Z,10.29
2023-04-19T02:23:59.881Z,10.17
2023-04-19T02:27:03.233Z,10.11
2023-04-19T02:30:09.692Z,10.08
2023-04-19T02:33:13.024Z,10.17
2023-04-19T02:36:16.081Z,10.09
2023-04-19T02:39:19.056Z,10.08
2023-04-19T02:42:21.962Z,9.94
2023-04-19T02:45:25.415Z,9.87
2023-04-19T02:48:31.257Z,9.85
2023-04-19T02:51:34.396Z,9.83
2023-04-19T02:54:37.705Z,9.75
2023-04-19T02:57:41.372Z,9.61
2023-04-19T03:00:46.465Z,9.58
2023-04-19T03:03:52.645Z,9.55
2023-04-19T03:06:55.889Z,9.47
2023-04-19T03:09:59.721Z,9.49
2023-04-19T03:13:02.691Z,9.55
2023-04-19T03:16:07.586Z,9.55
2023-04-19T03:19:11.030Z,9.57
2023-04-19T03:22:21.578Z,9.43
2023-04-19T03:25:24.982Z,9.46
2023-04-19T03:28:36.271Z,9.39
2023-04-19T03:31:58.071Z,9.31
2023-04-19T03:35:01.430Z,9.33
2023-04-19T03:38:05.719Z,9.37
2023-04-19T03:41:19.131Z,9.41
2023-04-19T03:44:23.374Z,9.46
2023-04-19T03:47:26.563Z,9.51
2023-04-19T03:50:33.116Z,9.55
2023-04-19T03:53:37.036Z,9.55
2023-04-19T03:56:40.416Z,9.57
2023-04-19T03:59:44.304Z,9.62
2023-04-19T04:02:47.895Z,9.61
2023-04-19T04:05:50.936Z,9.60
2023-04-19T04:08:54.344Z,9.70
2023-04-19T04:11:57.881Z,9.75
2023-04-19T04:15:01.117Z,10.03
2023-04-19T04:18:08.495Z,10.34
2023-04-19T04:21:12.323Z,10.37
2023-04-19T04:24:20.389Z,10.57
2023-04-19T04:27:52.536Z,10.73
2023-04-19T04:31:00.478Z,10.80
2023-04-19T04:34:09.388Z,10.99
2023-04-19T04:37:18.117Z,11.11
2023-04-19T04:40:22.640Z,11.37
2023-04-19T04:43:29.348Z,11.24
2023-04-19T04:46:32.645Z,11.33
2023-04-19T04:49:36.583Z,11.15
2023-04-19T04:52:40.282Z,11.18
2023-04-19T04:55:47.862Z,11.31
2023-04-19T04:58:51.204Z,11.38
2023-04-19T05:02:03.266Z,11.47
2023-04-19T05:05:06.800Z,11.71
2023-04-19T05:08:09.788Z,12.14
2023-04-19T05:11:15.409Z,12.23
2023-04-19T05:14:19.773Z,12.41
2023-04-19T05:17:23.105Z,12.52
2023-04-19T05:20:26.592Z,12.83
2023-04-19T05:23:38.609Z,13.25
2023-04-19T05:26:42.221Z,13.67
2023-04-19T05:29:46.257Z,13.81
2023-04-19T05:32:49.461Z,13.90
2023-04-19T05:35:54.510Z,14.33
2023-04-19T05:38:58.027Z,14.46
2023-04-19T05:42:01.978Z,14.71
2023-04-19T05:45:07.488Z,14.96
2023-04-19T05:48:11.068Z,15.03
2023-04-19T05:51:38.976Z,14.95
2023-04-19T05:54:46.274Z,15.12
2023-04-19T05:57:49.692Z,14.98
2023-04-19T06:00:52.971Z,14.98
2023-04-19T06:03:58.326Z,15.18
2023-04-19T06:07:03.106Z,14.75
2023-04-19T06:10:08.277Z,14.53
2023-04-19T06:13:11.977Z,14.52
2023-04-19T06:16:15.423Z,15.02
2023-04-19T06:19:18.537Z,14.90
2023-04-19T06:22:22.716Z,15.03
2023-04-19T06:25:26.952Z,15.52
2023-04-19T06:28:29.861Z,15.66
2023-04-19T06:31:34.108Z,15.97
2023-04-19T06:34:37.337Z,16.05
2023-04-19T06:37:40.948Z,15.94
2023-04-19T06:40:44.278Z,16.19
2023-04-19T06:43:48.893Z,16.15
2023-04-19T06:46:52.486Z,16.68
2023-04-19T06:49:57.093Z,16.98
2023-04-19T06:53:01.183Z,16.66
2023-04-19T06:56:06.282Z,16.48
2023-04-19T06:59:09.856Z,16.36
2023-04-19T07:02:13.534Z,16.40
2023-04-19T07:05:17.590Z,16.70
2023-04-19T07:08:20.699Z,16.28
2023-04-19T07:11:25.167Z,15.73
2023-04-19T07:14:29.451Z,15.73
2023-04-19T07:17:39.826Z,15.74
2023-04-19T07:20:46.946Z,15.82
2023-04-19T07:23:50.376Z,16.12
2023-04-19T07:26:54.100Z,16.54
2023-04-19T07:29:57.449Z,16.35
2023-04-19T07:33:00.995Z,16.13
2023-04-19T07:36:04.288Z,16.65
2023-04-19T07:39:08.302Z,17.31
2023-04-19T07:42:12.040Z,17.47
2023-04-19T07:45:15.517Z,17.22
2023-04-19T07:48:19.233Z,17.17
2023-04-19T07:51:24.787Z,17.19
2023-04-19T07:54:28.330Z,16.87
2023-04-19T07:57:31.853Z,16.73
2023-04-19T08:00:39.637Z,16.27
2023-04-19T08:03:47.496Z,16.35
2023-04-19T08:06:53.295Z,16.06
2023-04-19T08:09:56.960Z,15.85
2023-04-19T08:13:05.373Z,15.92
2023-04-19T08:19:16.678Z,15.84
2023-04-19T08:22:21.822Z,15.86
2023-04-19T08:25:28.781Z,15.67
2023-04-19T08:28:32.120Z,15.77
2023-04-19T08:31:39.696Z,15.85
2023-04-19T08:34:43.984Z,16.23
2023-04-19T08:37:48.897Z,16.09
2023-04-19T08:40:53.302Z,16.06
2023-04-19T08:43:59.489Z,16.13
2023-04-19T08:47:03.170Z,16.11
2023-04-19T08:50:20.578Z,16.10
2023-04-19T08:53:36.071Z,16.04
2023-04-19T08:56:39.926Z,15.87
2023-04-19T08:59:45.855Z,15.82
2023-04-19T09:02:52.484Z,15.63
2023-04-19T09:05:57.261Z,15.70
2023-04-19T09:12:28.067Z,15.77
2023-04-19T09:15:39.630Z,16.28
2023-04-19T09:19:02.435Z,16.54
2023-04-19T09:22:23.980Z,16.36
2023-04-19T09:28:33.246Z,17.10
2023-04-19T09:31:50.551Z,17.56
2023-04-19T09:34:59.930Z,17.81
2023-04-19T09:38:06.855Z,17.97
2023-04-19T09:41:11.540Z,18.13
2023-04-19T09:47:26.857Z,18.22
2023-04-19T09:50:31.901Z,18.16
2023-04-19T09:53:36.951Z,18.14
2023-04-19T09:56:41.097Z,18.55
2023-04-19T09:59:44.910Z,18.65
2023-04-19T10:02:56.043Z,18.75
2023-04-19T10:06:04.360Z,18.87
2023-04-19T10:09:14.551Z,18.98
2023-04-19T10:12:38.984Z,18.98
2023-04-19T10:15:52.694Z,18.93
2023-04-19T10:19:02.885Z,18.47
2023-04-19T10:22:08.053Z,18.86
2023-04-19T10:25:13.925Z,19.42
2023-04-19T10:28:18.036Z,19.57
2023-04-19T10:31:23.773Z,19.88
2023-04-19T10:34:40.541Z,19.87
2023-04-19T10:38:03.630Z,19.73
2023-04-19T10:41:15.521Z,20.09
2023-04-19T10:44:19.869Z,19.83
2023-04-19T10:47:45.495Z,19.62
2023-04-19T10:54:33.527Z,19.94
2023-04-19T10:58:05.537Z,19.49
2023-04-19T11:01:45.779Z,19.14
2023-04-19T11:04:49.075Z,19.71
2023-04-19T11:07:52.197Z,19.57
2023-04-19T11:10:57.719Z,20.18
2023-04-19T11:14:03.092Z,20.11
2023-04-19T11:17:18.531Z,19.77
2023-04-19T11:20:24.600Z,19.86
2023-04-19T11:23:27.764Z,20.05
2023-04-19T11:26:31.502Z,20.32
2023-04-19T11:29:34.464Z,20.75
2023-04-19T11:32:37.775Z,20.96
2023-04-19T11:35:41.639Z,20.66
2023-04-19T11:38:48.790Z,20.59
2023-04-19T11:41:53.165Z,20.34
2023-04-19T11:44:58.495Z,21.24
2023-04-19T11:48:02.114Z,21.00
2023-04-19T11:51:08.637Z,21.26
2023-04-19T11:54:15.014Z,21.32
2023-04-19T11:57:28.885Z,21.43
2023-04-19T12:00:32.352Z,21.10
2023-04-19T12:03:58.987Z,20.35
2023-04-19T12:07:03.754Z,19.32
2023-04-19T12:10:11.818Z,18.98
2023-04-19T12:13:18.977Z,18.40
2023-04-19T12:16:29.095Z,18.20
2023-04-19T12:19:37.333Z,19.16
2023-04-19T12:22:40.786Z,19.41
2023-04-19T12:25:47.625Z,18.74
2023-04-19T12:28:50.664Z,18.19
2023-04-19T12:31:54.141Z,17.67
2023-04-19T12:34:57.603Z,17.41
2023-04-19T12:38:01.250Z,16.93
2023-04-19T12:41:04.804Z,16.72
2023-04-19T12:44:08.765Z,16.56
2023-04-19T12:47:12.063Z,16.16
2023-04-19T12:50:16.330Z,16.05
2023-04-19T12:53:19.454Z,15.86
2023-04-19T12:56:23.251Z,15.77
2023-04-19T12:59:28.175Z,15.49
2023-04-19T13:02:31.351Z,15.54
2023-04-19T13:05:34.729Z,15.45
2023-04-19T13:08:45.538Z,15.30
2023-04-19T13:11:51.239Z,15.33
2023-04-19T13:14:54.946Z,15.32
2023-04-19T13:17:58.232Z,15.37
2023-04-19T13:21:01.221Z,15.34
2023-04-19T13:24:04.356Z,15.25
2023-04-19T13:27:08.917Z,15.33
2023-04-19T13:30:13.112Z,14.68
2023-04-19T13:33:16.384Z,14.67
2023-04-19T13:36:20.132Z,14.79
2023-04-19T13:39:26.088Z,14.97
2023-04-19T13:42:29.788Z,14.86
2023-04-19T13:45:33.260Z,14.85
2023-04-19T13:48:36.242Z,15.15
2023-04-19T13:51:49.539Z,14.97
2023-04-19T13:54:53.362Z,15.20
2023-04-19T13:57:56.177Z,15.00
2023-04-19T14:00:59.529Z,15.09
2023-04-19T14:04:03.223Z,15.43
2023-04-19T14:07:07.366Z,15.69
2023-04-19T14:10:11.201Z,15.78
2023-04-19T14:13:15.386Z,15.87
2023-04-19T14:16:18.435Z,15.62
2023-04-19T14:19:22.013Z,15.44
2023-04-19T14:22:25.225Z,15.46
2023-04-19T14:25:28.352Z,15.47
2023-04-19T14:28:31.581Z,15.16
2023-04-19T14:31:34.903Z,14.98
2023-04-19T14:34:37.960Z,15.10
2023-04-19T14:37:41.017Z,15.05
2023-04-19T14:40:44.330Z,14.95
2023-04-19T14:43:47.786Z,14.95
2023-04-19T14:46:51.228Z,14.89
2023-04-19T14:49:54.291Z,14.72
2023-04-19T14:52:57.475Z,14.61
2023-04-19T14:56:03.940Z,14.51
2023-04-19T14:59:08.253Z,14.68
2023-04-19T15:02:13.630Z,14.73
2023-04-19T15:05:17.358Z,14.83
2023-04-19T15:08:30.033Z,15.00
2023-04-19T15:11:34.664Z,14.92
2023-04-19T15:14:38.853Z,14.88
2023-04-19T15:17:43.448Z,14.81
2023-04-19T15:20:46.598Z,14.85
2023-04-19T15:23:49.908Z,14.99
2023-04-19T15:26:52.992Z,14.95
2023-04-19T15:29:56.093Z,14.88
2023-04-19T15:32:59.637Z,14.93
2023-04-19T15:36:02.797Z,14.94
2023-04-19T15:39:06.051Z,14.89
2023-04-19T15:42:09.541Z,14.90
2023-04-19T15:45:12.840Z,14.67
2023-04-19T15:48:16.197Z,14.69
2023-04-19T15:51:19.052Z,14.56
2023-04-19T15:54:23.176Z,14.57
2023-04-19T15:57:26.591Z,14.48
2023-04-19T16:00:30.389Z,14.41
2023-04-19T16:03:34.158Z,14.32
2023-04-19T16:06:37.504Z,14.19
2023-04-19T16:09:40.851Z,14.09
2023-04-19T16:12:44.308Z,13.98
2023-04-19T16:15:47.607Z,13.87
2023-04-19T16:18:51.225Z,13.97
2023-04-19T16:21:54.463Z,13.96
2023-04-19T16:24:57.301Z,13.92
2023-04-19T16:28:01.008Z,13.79
2023-04-19T16:31:04.255Z,13.76
2023-04-19T16:34:08.276Z,13.74
2023-04-19T16:37:11.559Z,13.67
2023-04-19T16:40:15.163Z,13.57
2023-04-19T16:43:20.882Z,13.56
2023-04-19T16:46:23.977Z,13.49
2023-04-19T16:49:26.868Z,13.41
2023-04-19T16:52:32.822Z,13.48
2023-04-19T16:55:36.549Z,13.37
2023-04-19T16:58:40.274Z,13.38
2023-04-19T17:01:44.487Z,13.25
2023-04-19T17:04:48.087Z,13.19
2023-04-19T17:07:52.564Z,13.19
2023-04-19T17:10:56.291Z,13.08
2023-04-19T17:13:59.717Z,12.97
2023-04-19T17:17:03.015Z,12.94
2023-04-19T17:20:06.559Z,12.71
2023-04-19T17:23:09.566Z,12.54
2023-04-19T17:26:12.685Z,12.52
2023-04-19T17:29:16.086Z,12.34
2023-04-19T17:32:19.408Z,12.29
2023-04-19T17:35:22.896Z,12.26
2023-04-19T17:38:25.997Z,12.22
2023-04-19T17:41:29.125Z,12.14
2023-04-19T17:44:32.077Z,12.06
2023-04-19T17:47:35.488Z,12.02
2023-04-19T17:50:38.771Z,12.07
2023-04-19T17:53:42.566Z,12.06
2023-04-19T17:56:45.892Z,11.94
2023-04-19T17:59:48.871Z,11.80
2023-04-19T18:02:52.268Z,11.70
2023-04-19T18:05:55.457Z,11.62
2023-04-19T18:08:59.280Z,11.55
2023-04-19T18:12:02.978Z,11.50
2023-04-19T18:15:06.842Z,11.45
2023-04-19T18:18:09.958Z,11.33
2023-04-19T18:21:13.029Z,11.42
2023-04-19T18:24:16.444Z,11.26
2023-04-19T18:27:19.739Z,11.17
2023-04-19T18:30:22.819Z,11.21
2023-04-19T18:33:26.512Z,11.06
2023-04-19T18:36:29.886Z,11.03
2023-04-19T18:39:33.484Z,11.06
2023-04-19T18:42:36.810Z,11.08
2023-04-19T18:45:39.854Z,10.86
2023-04-19T18:48:42.852Z,10.87
2023-04-19T18:51:47.313Z,10.80
2023-04-19T18:54:50.747Z,10.76
2023-04-19T18:57:54.480Z,10.66
2023-04-19T19:00:58.691Z,10.69
2023-04-19T19:07:27.296Z,10.60
2023-04-19T19:10:54.216Z,10.53
2023-04-19T19:13:54.608Z,10.47
2023-04-19T19:16:58.948Z,10.41
2023-04-19T19:20:02.251Z,10.30
2023-04-19T19:23:06.144Z,10.24
2023-04-19T19:26:12.525Z,10.24
2023-04-19T19:29:17.843Z,10.19
2023-04-19T19:32:21.819Z,10.24
2023-04-19T19:35:25.264Z,10.15
2023-04-19T19:38:28.293Z,10.20
2023-04-19T19:42:03.390Z,10.01
2023-04-19T19:44:55.879Z,10.07
2023-04-19T19:48:00.165Z,9.98
2023-04-19T19:51:31.388Z,9.92
2023-04-19T19:54:27.684Z,9.83
2023-04-19T20:00:46.335Z,9.80
2023-04-19T20:03:52.051Z,9.76
2023-04-19T20:10:01.501Z,9.71
2023-04-19T20:13:06.410Z,9.69
2023-04-19T20:16:10.251Z,9.63
2023-04-19T20:19:14.023Z,9.58
2023-04-19T20:22:17.690Z,9.66
2023-04-19T20:25:21.043Z,9.79
2023-04-19T20:28:24.556Z,9.81
2023-04-19T20:31:28.097Z,9.80
2023-04-19T20:34:31.401Z,9.74
2023-04-19T20:37:37.743Z,9.79
2023-04-19T20:40:41.444Z,9.78
2023-04-19T20:43:44.819Z,9.92
2023-04-19T20:46:49.273Z,9.93
2023-04-19T20:49:53.066Z,9.85
2023-04-19T20:52:56.875Z,9.75
2023-04-19T20:56:01.381Z,9.67
2023-04-19T20:59:04.809Z,9.62
2023-04-19T21:02:08.549Z,9.65
2023-04-19T21:05:11.906Z,9.74
2023-04-19T21:08:16.227Z,9.61
2023-04-19T21:11:19.417Z,9.72
2023-04-19T21:14:22.766Z,9.64
2023-04-19T21:17:26.301Z,9.71
2023-04-19T21:20:29.649Z,9.69
2023-04-19T21:23:32.902Z,9.63
2023-04-19T21:26:36.388Z,9.53
2023-04-19T21:29:39.957Z,9.46
2023-04-19T21:32:42.987Z,9.40
2023-04-19T21:35:46.312Z,9.34
2023-04-19T21:38:49.416Z,9.24
2023-04-19T21:41:52.536Z,9.05
2023-04-19T21:44:55.769Z,9.08
2023-04-19T21:47:59.347Z,9.01
2023-04-19T21:51:02.663Z,8.99
2023-04-19T21:54:06.181Z,8.97
2023-04-19T21:57:09.172Z,8.94
2023-04-19T22:00:13.924Z,8.89
2023-04-19T22:03:17.502Z,8.90
2023-04-19T22:06:22.114Z,8.95
2023-04-19T22:09:28.759Z,9.10
2023-04-19T22:12:34.061Z,9.10
2023-04-19T22:15:38.405Z,9.06
2023-04-19T22:18:41.910Z,9.05
2023-04-19T22:21:47.073Z,8.75
2023-04-19T22:24:57.420Z,8.69
2023-04-19T22:28:00.870Z,8.79
2023-04-19T22:31:04.243Z,8.68
2023-04-19T22:34:07.279Z,8.73
2023-04-19T22:37:10.636Z,8.72
2023-04-19T22:40:13.971Z,8.65
2023-04-19T22:43:17.132Z,8.70
2023-04-19T22:46:20.427Z,8.81
2023-04-19T22:49:24.237Z,8.79
2023-04-19T22:52:27.944Z,8.74
2023-04-19T22:55:31.024Z,8.74
2023-04-19T22:58:34.259Z,8.74
2023-04-19T23:01:37.595Z,8.75
2023-04-19T23:04:41.121Z,8.64
2023-04-19T23:07:45.381Z,8.72
2023-04-19T23:10:51.155Z,8.65
2023-04-19T23:13:54.198Z,8.74
2023-04-19T23:16:57.722Z,8.64
2023-04-19T23:20:00.759Z,8.47
2023-04-19T23:23:05.328Z,8.31
2023-04-19T23:26:08.198Z,8.19
2023-04-19T23:29:11.177Z,8.14
2023-04-19T23:32:14.630Z,8.10
2023-04-19T23:35:18.188Z,7.99
2023-04-19T23:38:21.154Z,8.02
2023-04-19T23:41:24.246Z,8.08
2023-04-19T23:44:27.443Z,7.97
2023-04-19T23:47:30.775Z,7.98
2023-04-19T23:50:33.882Z,7.97
2023-04-19T23:53:38.732Z,8.00
2023-04-19T23:56:41.839Z,8.02
2023-04-19T23:59:45.081Z,7.90
